2MARL EGHI-EGJB
Flight info
| Callsign | 2MARL |
|---|---|
| Flight time | 0h 21m |
| Altitude | 12000 |
| Route | NEDUL Q41 ORTAC |
| Aircraft | C750/M-SBDE3FGHRWXY/S |
Departure
| Time | 2026-04-26 14:00 |
|---|---|
| Airport | Southampton Airport (EGHI) |
Arrival
| Time | 2026-04-26 14:21 |
|---|---|
| Airport | Guernsey Airport (EGJB) |
| Time | Latitude | Longitude | Altitude | Speed | Heading |
|---|---|---|---|---|---|
| 2026-04-26 13:57 | 50.95673 | -1.35321 | 38 ft | 0 kts | 200° |
| 2026-04-26 13:58 | 50.94590 | -1.36092 | 35 ft | 0 kts | 110° |
| 2026-04-26 13:59 | 50.94569 | -1.35994 | 35 ft | 18 kts | 106° |
| 2026-04-26 13:59 | 50.94594 | -1.35925 | 35 ft | 0 kts | 20° |
| 2026-04-26 13:59 | 50.94653 | -1.35890 | 36 ft | 44 kts | 19° |
| 2026-04-26 14:00 | 50.96973 | -1.34918 | 1074 ft | 176 kts | 354° |
| 2026-04-26 14:00 | 50.94590 | -1.36092 | 35 ft | 0 kts | 110° |
| 2026-04-26 14:00 | 50.94587 | -1.36080 | 35 ft | 6 kts | 107° |
| 2026-04-26 14:01 | 50.94594 | -1.35925 | 35 ft | 0 kts | 20° |
| 2026-04-26 14:01 | 50.94598 | -1.35923 | 35 ft | 10 kts | 20° |
| 2026-04-26 14:01 | 50.95032 | -1.35678 | 36 ft | 124 kts | 20° |
| 2026-04-26 14:01 | 50.95917 | -1.35215 | 651 ft | 131 kts | 22° |
| 2026-04-26 14:02 | 50.96910 | -1.34906 | 1064 ft | 175 kts | 356° |
| 2026-04-26 14:02 | 50.97793 | -1.35579 | 1164 ft | 199 kts | 314° |
| 2026-04-26 14:02 | 50.98244 | -1.37662 | 1833 ft | 215 kts | 264° |
| 2026-04-26 14:02 | 50.97496 | -1.39781 | 2336 ft | 238 kts | 214° |
| 2026-04-26 14:03 | 50.95890 | -1.40305 | 3107 ft | 245 kts | 168° |
| 2026-04-26 14:03 | 50.94472 | -1.39104 | 4702 ft | 210 kts | 147° |
| 2026-04-26 14:03 | 50.93257 | -1.38161 | 6347 ft | 188 kts | 159° |
| 2026-04-26 14:03 | 50.92020 | -1.37836 | 7336 ft | 184 kts | 187° |
| 2026-04-26 14:04 | 50.90843 | -1.38557 | 8360 ft | 179 kts | 208° |
| 2026-04-26 14:04 | 50.89781 | -1.39495 | 9545 ft | 171 kts | 209° |
| 2026-04-26 14:04 | 50.88762 | -1.40357 | 10591 ft | 162 kts | 208° |
| 2026-04-26 14:04 | 50.87790 | -1.41186 | 11399 ft | 159 kts | 209° |
| 2026-04-26 14:05 | 50.86731 | -1.42095 | 11675 ft | 194 kts | 209° |
| 2026-04-26 14:05 | 50.85396 | -1.43234 | 11766 ft | 234 kts | 208° |
| 2026-04-26 14:05 | 50.83909 | -1.44501 | 12353 ft | 252 kts | 208° |
| 2026-04-26 14:05 | 50.82319 | -1.45858 | 12946 ft | 268 kts | 208° |
| 2026-04-26 14:06 | 50.80644 | -1.47285 | 13526 ft | 286 kts | 208° |
| 2026-04-26 14:06 | 50.78847 | -1.48813 | 14118 ft | 301 kts | 208° |
| 2026-04-26 14:06 | 50.76954 | -1.50420 | 14624 ft | 316 kts | 209° |
| 2026-04-26 14:06 | 50.74979 | -1.52098 | 15133 ft | 329 kts | 209° |
| 2026-04-26 14:07 | 50.72928 | -1.53839 | 15639 ft | 340 kts | 209° |
| 2026-04-26 14:07 | 50.70811 | -1.55635 | 16154 ft | 351 kts | 210° |
| 2026-04-26 14:07 | 50.68620 | -1.57490 | 16672 ft | 362 kts | 210° |
| 2026-04-26 14:07 | 50.66376 | -1.59389 | 17199 ft | 371 kts | 210° |
| 2026-04-26 14:08 | 50.64071 | -1.61336 | 17728 ft | 381 kts | 210° |
| 2026-04-26 14:08 | 50.61739 | -1.63304 | 18263 ft | 389 kts | 210° |
| 2026-04-26 14:08 | 50.59328 | -1.65338 | 18773 ft | 398 kts | 210° |
| 2026-04-26 14:08 | 50.56855 | -1.67421 | 18994 ft | 413 kts | 210° |
| 2026-04-26 14:09 | 50.54267 | -1.69599 | 19003 ft | 431 kts | 210° |
| 2026-04-26 14:09 | 50.51564 | -1.71869 | 19005 ft | 447 kts | 210° |
| 2026-04-26 14:09 | 50.48787 | -1.74195 | 18999 ft | 455 kts | 210° |
| 2026-04-26 14:09 | 50.45990 | -1.76534 | 18996 ft | 455 kts | 210° |
| 2026-04-26 14:10 | 50.44145 | -1.78078 | 18996 ft | 454 kts | 210° |
| 2026-04-26 14:10 | 50.41360 | -1.80408 | 18998 ft | 453 kts | 210° |
| 2026-04-26 14:10 | 50.38573 | -1.82735 | 18997 ft | 453 kts | 210° |
| 2026-04-26 14:10 | 50.35796 | -1.85049 | 18993 ft | 452 kts | 210° |
| 2026-04-26 14:11 | 50.29352 | -1.90408 | 18988 ft | 451 kts | 210° |
| 2026-04-26 14:11 | 50.27515 | -1.91933 | 18988 ft | 451 kts | 210° |
| 2026-04-26 14:11 | 50.23809 | -1.95005 | 18985 ft | 450 kts | 210° |
| 2026-04-26 14:12 | 50.21978 | -1.96521 | 18985 ft | 450 kts | 210° |
| 2026-04-26 14:12 | 50.19213 | -1.98808 | 18985 ft | 450 kts | 210° |
| 2026-04-26 14:12 | 50.16446 | -2.01093 | 18981 ft | 450 kts | 210° |
| 2026-04-26 14:12 | 50.13686 | -2.03370 | 18981 ft | 449 kts | 210° |
| 2026-04-26 14:13 | 50.08159 | -2.07919 | 18979 ft | 449 kts | 210° |
| 2026-04-26 14:13 | 50.05396 | -2.10189 | 18974 ft | 449 kts | 210° |
| 2026-04-26 14:13 | 50.01736 | -2.13191 | 18976 ft | 449 kts | 210° |
| 2026-04-26 14:14 | 49.99906 | -2.14690 | 18972 ft | 449 kts | 210° |
| 2026-04-26 14:14 | 49.97139 | -2.16955 | 18969 ft | 449 kts | 210° |
| 2026-04-26 14:14 | 49.94374 | -2.19215 | 18968 ft | 449 kts | 210° |
| 2026-04-26 14:14 | 49.91606 | -2.21474 | 18968 ft | 449 kts | 210° |
| 2026-04-26 14:15 | 49.88839 | -2.23730 | 18970 ft | 450 kts | 210° |
| 2026-04-26 14:15 | 49.86069 | -2.25985 | 18971 ft | 450 kts | 210° |
| 2026-04-26 14:15 | 49.83296 | -2.28239 | 18973 ft | 450 kts | 209° |
| 2026-04-26 14:15 | 49.80532 | -2.30483 | 18971 ft | 450 kts | 209° |
| 2026-04-26 14:16 | 49.77760 | -2.32731 | 18972 ft | 450 kts | 209° |
| 2026-04-26 14:16 | 49.75026 | -2.34945 | 18973 ft | 449 kts | 209° |
| 2026-04-26 14:16 | 49.72252 | -2.37188 | 18973 ft | 449 kts | 209° |
| 2026-04-26 14:16 | 49.69486 | -2.39423 | 18968 ft | 449 kts | 209° |
| 2026-04-26 14:17 | 49.66776 | -2.41605 | 18958 ft | 417 kts | 209° |
| 2026-04-26 14:17 | 49.64334 | -2.43562 | 18593 ft | 371 kts | 210° |
| 2026-04-26 14:17 | 49.62267 | -2.45215 | 16584 ft | 312 kts | 209° |
| 2026-04-26 14:17 | 49.60415 | -2.46722 | 14416 ft | 292 kts | 209° |
| 2026-04-26 14:18 | 49.58658 | -2.48148 | 12309 ft | 279 kts | 208° |
| 2026-04-26 14:18 | 49.56990 | -2.49485 | 10424 ft | 269 kts | 207° |
| 2026-04-26 14:18 | 49.55362 | -2.50787 | 8534 ft | 260 kts | 207° |
| 2026-04-26 14:18 | 49.53779 | -2.52057 | 6792 ft | 253 kts | 208° |
| 2026-04-26 14:19 | 49.52174 | -2.53345 | 5457 ft | 275 kts | 208° |
| 2026-04-26 14:19 | 49.50444 | -2.55000 | 4747 ft | 309 kts | 216° |
| 2026-04-26 14:19 | 49.48863 | -2.57304 | 4540 ft | 318 kts | 229° |
| 2026-04-26 14:19 | 49.47561 | -2.60063 | 4539 ft | 319 kts | 239° |
| 2026-04-26 14:20 | 49.46731 | -2.63143 | 4589 ft | 315 kts | 252° |
| 2026-04-26 14:20 | 49.45828 | -2.65937 | 4205 ft | 288 kts | 206° |
| 2026-04-26 14:20 | 49.44050 | -2.66187 | 2402 ft | 254 kts | 146° |
| 2026-04-26 14:20 | 49.43447 | -2.64244 | 925 ft | 193 kts | 92° |
| 2026-04-26 14:21 | 49.43445 | -2.62434 | 475 ft | 145 kts | 88° |
| 2026-04-26 14:21 | 49.43479 | -2.61025 | 317 ft | 120 kts | 88° |
| 2026-04-26 14:21 | 49.43505 | -2.60057 | 338 ft | 60 kts | 89° |
| 2026-04-26 14:21 | 49.43459 | -2.59861 | 341 ft | 9 kts | 185° |
| 2026-04-26 14:22 | 49.43398 | -2.59861 | 341 ft | 8 kts | 177° |
| 2026-04-26 14:22 | 49.43353 | -2.59843 | 337 ft | 6 kts | 133° |
| 2026-04-26 14:22 | 49.43359 | -2.59686 | 341 ft | 17 kts | 93° |
| 2026-04-26 14:22 | 49.43369 | -2.59535 | 339 ft | 11 kts | 84° |
| 2026-04-26 14:23 | 49.43371 | -2.59398 | 341 ft | 17 kts | 89° |
| 2026-04-26 14:23 | 49.43378 | -2.59172 | 341 ft | 25 kts | 85° |
| 2026-04-26 14:23 | 49.43375 | -2.59053 | 339 ft | 5 kts | 179° |
| 2026-04-26 14:23 | 49.43354 | -2.59063 | 338 ft | 1 kts | 249° |
| 2026-04-26 14:24 | 49.43354 | -2.59082 | 341 ft | 0 kts | 276° |
| 2026-04-26 14:24 | 49.43355 | -2.59081 | 341 ft | 0 kts | 292° |